Time;durP1;ratioP1;P1;durP2;ratioP2;P2;SDS_P1;SDS_P2;PMS_P1;PMS_P2;Temp;Humidity;BMP_temperature;BMP_pressure;BME280_temperature;BME280_humidity;BME280_pressure;Samples;Min_cycle;Max_cycle;Signal;HPM_P1;HPM_P2
2021/01/06 00:01:22;;;;;;;4.63;3.90;;;2.90;99.90;;;;;;5027963;28;20483;-53
2021/01/06 00:03:50;;;;;;;7.90;4.20;;;2.90;99.90;;;;;;5023560;28;20514;-56
2021/01/06 00:06:22;;;;;;;5.40;3.90;;;2.90;99.90;;;;;;5008276;28;21034;-52
2021/01/06 00:08:50;;;;;;;6.10;4.13;;;2.90;99.90;;;;;;5008408;28;21035;-52
2021/01/06 00:11:18;;;;;;;7.27;4.40;;;2.90;99.90;;;;;;5014497;28;20556;-55
2021/01/06 00:13:46;;;;;;;5.87;3.70;;;2.90;99.90;;;;;;5013100;28;21268;-53
2021/01/06 00:16:14;;;;;;;8.30;4.10;;;2.90;99.90;;;;;;5014761;28;20476;-56
2021/01/06 00:18:41;;;;;;;7.93;3.93;;;2.90;99.90;;;;;;5016582;28;20568;-56
2021/01/06 00:21:11;;;;;;;6.30;3.57;;;2.90;99.90;;;;;;5025243;28;20515;-56
2021/01/06 00:23:38;;;;;;;6.33;4.03;;;2.90;99.90;;;;;;5016914;28;20592;-54
2021/01/06 00:26:05;;;;;;;5.93;4.33;;;2.90;99.90;;;;;;5005804;28;20567;-54
2021/01/06 00:28:36;;;;;;;5.53;4.07;;;2.90;99.90;;;;;;5007025;28;20983;-53
2021/01/06 00:31:03;;;;;;;10.30;4.07;;;2.90;99.90;;;;;;5009647;28;20996;-56
2021/01/06 00:33:35;;;;;;;7.77;4.30;;;2.90;99.90;;;;;;5011424;28;20491;-55
2021/01/06 00:36:08;;;;;;;8.33;4.20;;;2.90;99.90;;;;;;5011672;28;20477;-53
2021/01/06 00:38:39;;;;;;;6.30;4.20;;;2.90;99.90;;;;;;5014975;28;20507;-55
2021/01/06 00:41:06;;;;;;;7.53;4.37;;;2.90;99.90;;;;;;5011862;28;20481;-55
2021/01/06 00:43:34;;;;;;;6.43;4.00;;;2.90;99.90;;;;;;5010955;28;20492;-53
2021/01/06 00:46:02;;;;;;;10.13;3.93;;;2.80;99.90;;;;;;5011701;28;20484;-55
2021/01/06 00:48:29;;;;;;;7.47;4.40;;;2.80;99.90;;;;;;5009951;28;20823;-53
2021/01/06 00:51:01;;;;;;;7.53;4.67;;;2.90;99.90;;;;;;5011764;28;20825;-56
2021/01/06 00:53:29;;;;;;;5.93;3.70;;;2.90;99.90;;;;;;5009628;28;20574;-56
2021/01/06 00:56:04;;;;;;;7.80;4.10;;;2.90;99.90;;;;;;5006187;28;20983;-55
2021/01/06 00:58:34;;;;;;;7.33;4.00;;;2.90;99.90;;;;;;5003664;28;20501;-52
2021/01/06 01:01:03;;;;;;;6.53;4.30;;;2.90;99.90;;;;;;5002868;28;20565;-55
2021/01/06 01:03:38;;;;;;;5.50;4.07;;;2.90;99.90;;;;;;4989353;28;20497;-54
2021/01/06 01:06:07;;;;;;;5.77;3.90;;;2.90;99.90;;;;;;5006413;28;20579;-54
2021/01/06 01:08:34;;;;;;;6.00;3.80;;;3.00;99.90;;;;;;5007399;28;20548;-52
2021/01/06 01:11:02;;;;;;;6.23;3.70;;;2.90;99.90;;;;;;5016505;28;20479;-53
2021/01/06 01:13:29;;;;;;;6.93;3.90;;;3.00;99.90;;;;;;5008920;28;20914;-55
2021/01/06 01:15:58;;;;;;;7.33;3.90;;;3.00;99.90;;;;;;5018964;28;20480;-52
2021/01/06 01:18:27;;;;;;;5.00;3.67;;;3.00;99.90;;;;;;5010641;28;20561;-55
2021/01/06 01:20:58;;;;;;;6.00;3.30;;;3.00;99.90;;;;;;5010588;28;20494;-52
2021/01/06 01:23:28;;;;;;;4.30;3.43;;;3.00;99.90;;;;;;5009699;28;20889;-55
2021/01/06 01:25:56;;;;;;;6.93;3.57;;;3.00;99.90;;;;;;5009110;28;20501;-52
2021/01/06 01:28:25;;;;;;;4.23;3.20;;;3.00;99.90;;;;;;5010722;28;20470;-56
2021/01/06 01:30:54;;;;;;;4.67;3.63;;;3.00;99.90;;;;;;5010723;28;20484;-53
2021/01/06 01:33:25;;;;;;;5.30;3.50;;;3.00;99.90;;;;;;5010885;28;20468;-54
2021/01/06 01:35:57;;;;;;;5.00;3.10;;;2.90;99.90;;;;;;5015234;28;21045;-53
2021/01/06 01:38:28;;;;;;;6.53;4.00;;;2.90;99.90;;;;;;5023852;28;20480;-56
2021/01/06 01:41:03;;;;;;;6.50;3.87;;;3.00;99.90;;;;;;5030255;28;20543;-56
2021/01/06 01:43:31;;;;;;;10.13;4.40;;;2.90;99.90;;;;;;5029736;28;20987;-55
2021/01/06 01:46:40;;;;;;;6.20;4.13;;;3.00;99.90;;;;;;5010447;28;20493;-55
2021/01/06 01:49:18;;;;;;;4.93;3.30;;;3.00;99.90;;;;;;5013139;28;20547;-52
2021/01/06 01:51:54;;;;;;;6.30;4.30;;;3.00;99.90;;;;;;5014217;28;20503;-56
2021/01/06 01:54:25;;;;;;;6.70;3.80;;;3.00;99.90;;;;;;5010418;28;20570;-52
2021/01/06 01:56:57;;;;;;;5.17;4.13;;;2.90;99.90;;;;;;5010781;28;20517;-52
2021/01/06 01:59:31;;;;;;;6.07;3.47;;;3.00;99.90;;;;;;5010509;28;20500;-55
2021/01/06 02:02:05;;;;;;;8.30;4.30;;;2.90;99.90;;;;;;5009443;28;20555;-55
2021/01/06 02:04:38;;;;;;;6.33;3.97;;;2.90;99.90;;;;;;5022239;28;20541;-52
2021/01/06 02:07:12;;;;;;;6.00;4.00;;;2.90;99.90;;;;;;5016798;28;20567;-56
2021/01/06 02:09:52;;;;;;;5.80;4.20;;;2.90;99.90;;;;;;5017693;28;20588;-53
2021/01/06 02:12:29;;;;;;;8.00;4.33;;;2.90;99.90;;;;;;5011505;28;20559;-56
2021/01/06 02:15:09;;;;;;;4.40;3.47;;;2.90;99.90;;;;;;5016496;28;21069;-55
2021/01/06 02:17:37;;;;;;;5.63;3.93;;;2.90;99.90;;;;;;5008882;28;20829;-54
2021/01/06 02:20:13;;;;;;;7.40;3.93;;;2.80;99.90;;;;;;5009838;28;20480;-54
2021/01/06 02:22:41;;;;;;;8.63;4.37;;;2.80;99.90;;;;;;5008820;28;20575;-55
2021/01/06 02:25:10;;;;;;;6.63;4.50;;;2.80;99.90;;;;;;5009727;28;20567;-54
2021/01/06 02:27:37;;;;;;;8.20;4.03;;;2.80;99.90;;;;;;5009948;28;20552;-55
2021/01/06 02:30:07;;;;;;;7.97;4.13;;;2.80;99.90;;;;;;5009005;28;20560;-53
2021/01/06 02:32:34;;;;;;;5.93;4.20;;;2.80;99.90;;;;;;5013923;28;20589;-53
2021/01/06 02:35:04;;;;;;;7.10;4.23;;;2.80;99.90;;;;;;5028175;28;20475;-56
2021/01/06 02:37:32;;;;;;;6.60;4.00;;;2.80;99.90;;;;;;4989916;28;20993;-53
2021/01/06 02:40:00;;;;;;;6.83;3.90;;;2.80;99.90;;;;;;4990078;28;21105;-56
2021/01/06 02:42:28;;;;;;;7.00;3.60;;;2.70;99.90;;;;;;4991903;28;20908;-54
2021/01/06 02:44:55;;;;;;;5.73;3.80;;;2.70;99.90;;;;;;5009665;28;20519;-52
2021/01/06 02:47:23;;;;;;;6.57;3.60;;;2.70;99.90;;;;;;5009601;28;20548;-55
2021/01/06 02:49:52;;;;;;;6.83;3.80;;;2.80;99.90;;;;;;5009360;28;20573;-53
2021/01/06 02:52:27;;;;;;;7.40;4.13;;;2.80;99.90;;;;;;5008686;28;20556;-53
2021/01/06 02:54:54;;;;;;;4.60;3.57;;;2.80;99.90;;;;;;5008709;28;20820;-55
2021/01/06 02:57:23;;;;;;;6.80;4.00;;;2.70;99.90;;;;;;5009835;28;20480;-55
2021/01/06 02:59:52;;;;;;;6.30;4.30;;;2.70;99.90;;;;;;5009352;28;20515;-53
2021/01/06 03:02:22;;;;;;;5.80;3.50;;;2.70;99.90;;;;;;5008456;28;20513;-53
2021/01/06 03:05:00;;;;;;;7.20;4.13;;;2.70;99.90;;;;;;5006262;28;20507;-54
2021/01/06 03:07:29;;;;;;;6.00;3.63;;;2.70;99.90;;;;;;5015155;28;20551;-55
2021/01/06 03:09:57;;;;;;;5.43;3.57;;;2.70;99.90;;;;;;5011850;28;20531;-53
2021/01/06 03:12:30;;;;;;;5.87;3.13;;;2.70;99.90;;;;;;5008628;28;20511;-53
2021/01/06 03:14:59;;;;;;;7.33;3.87;;;2.70;99.90;;;;;;5009083;28;20554;-53
2021/01/06 03:17:29;;;;;;;6.77;3.63;;;2.70;99.90;;;;;;5008124;28;20614;-55
2021/01/06 03:20:02;;;;;;;6.27;3.90;;;2.70;99.90;;;;;;5007123;28;20901;-55
2021/01/06 03:22:30;;;;;;;5.27;3.90;;;2.70;99.90;;;;;;5007927;28;20566;-52
2021/01/06 03:25:05;;;;;;;4.70;3.53;;;2.70;99.90;;;;;;5009003;28;20577;-53
2021/01/06 03:27:35;;;;;;;5.90;3.40;;;2.60;99.90;;;;;;5008336;28;20531;-56
2021/01/06 03:30:07;;;;;;;5.50;3.40;;;2.60;99.90;;;;;;5008666;28;20559;-53
2021/01/06 03:32:42;;;;;;;5.40;3.40;;;2.60;99.90;;;;;;5007445;28;20843;-53
2021/01/06 03:35:22;;;;;;;5.30;3.70;;;2.60;99.90;;;;;;5008758;28;20484;-53
2021/01/06 03:38:20;;;;;;;4.42;2.84;;;2.60;99.90;;;;;;1194092;28;10022681;-53
2021/01/06 03:40:49;;;;;;;5.70;3.80;;;2.60;99.90;;;;;;4662361;28;10001646;-53
2021/01/06 03:43:19;;;;;;;6.10;3.60;;;2.60;99.90;;;;;;5008413;28;20477;-52
2021/01/06 03:45:51;;;;;;;4.10;3.20;;;2.60;99.90;;;;;;5008226;28;20472;-54
2021/01/06 03:48:23;;;;;;;4.27;3.30;;;2.60;99.90;;;;;;5009103;28;20479;-52
2021/01/06 03:50:54;;;;;;;4.90;3.70;;;2.60;99.90;;;;;;5018144;28;20541;-55
2021/01/06 03:53:31;;;;;;;5.20;3.40;;;2.60;99.90;;;;;;5007776;28;20491;-56
2021/01/06 03:56:03;;;;;;;5.63;3.33;;;2.60;99.90;;;;;;5008035;28;20572;-56
2021/01/06 03:58:46;;;;;;;5.80;3.57;;;2.60;99.90;;;;;;5013455;28;20477;-54
2021/01/06 04:01:42;;;;;;;4.60;3.03;;;2.50;99.90;;;;;;4992364;28;20603;-52
2021/01/06 04:04:19;;;;;;;5.53;3.60;;;2.50;99.90;;;;;;5007928;28;21783;-56
2021/01/06 04:06:50;;;;;;;4.40;3.30;;;2.50;99.90;;;;;;4998528;28;20567;-55
2021/01/06 04:09:25;;;;;;;5.87;3.50;;;2.60;99.90;;;;;;5008733;28;20567;-53
2021/01/06 04:12:04;;;;;;;5.17;3.50;;;2.60;99.90;;;;;;5007169;28;20523;-55
2021/01/06 04:14:33;;;;;;;4.30;3.10;;;2.60;99.90;;;;;;5006347;28;20487;-56
2021/01/06 04:17:15;;;;;;;4.70;2.83;;;2.50;99.90;;;;;;5007083;28;20986;-52
2021/01/06 04:19:48;;;;;;;5.43;2.80;;;2.50;99.90;;;;;;5007517;28;20579;-56
2021/01/06 04:22:22;;;;;;;4.77;3.30;;;2.50;99.90;;;;;;4999932;28;20478;-54
2021/01/06 04:24:50;;;;;;;3.50;3.00;;;2.50;99.90;;;;;;5006485;28;20513;-54
2021/01/06 04:27:19;;;;;;;4.60;3.07;;;2.50;99.90;;;;;;5019433;28;20546;-55
2021/01/06 04:29:47;;;;;;;4.83;2.70;;;2.50;99.90;;;;;;5026350;28;20526;-56
2021/01/06 04:32:15;;;;;;;4.63;2.80;;;2.50;99.90;;;;;;5013265;28;20555;-56
2021/01/06 04:34:42;;;;;;;6.07;2.73;;;2.50;99.90;;;;;;4998404;28;20576;-54
2021/01/06 04:37:09;;;;;;;3.63;3.10;;;2.50;99.90;;;;;;4987548;28;21083;-53
2021/01/06 04:39:36;;;;;;;6.67;3.53;;;2.50;99.90;;;;;;4988135;28;20572;-54
2021/01/06 04:42:08;;;;;;;3.50;2.70;;;2.40;99.90;;;;;;4998448;28;21168;-53
2021/01/06 04:44:56;;;;;;;3.47;2.87;;;2.40;99.90;;;;;;5007197;28;20557;-56
2021/01/06 04:47:49;;;;;;;5.10;3.20;;;2.40;99.90;;;;;;5024310;28;20559;-54
2021/01/06 04:51:13;;;;;;;3.67;2.80;;;2.40;99.90;;;;;;5017662;28;20843;-56
2021/01/06 04:53:58;;;;;;;5.53;3.20;;;2.50;99.90;;;;;;4987020;28;20555;-53
2021/01/06 04:56:53;;;;;;;4.63;3.33;;;2.40;99.90;;;;;;4987596;28;20481;-55
2021/01/06 04:59:44;;;;;;;5.00;3.20;;;2.40;99.90;;;;;;4990222;28;20517;-55
2021/01/06 05:02:28;;;;;;;3.73;2.80;;;2.40;99.90;;;;;;5008320;28;20578;-54
2021/01/06 05:05:39;;;;;;;5.70;3.37;;;2.40;99.90;;;;;;5019068;28;20562;-54
2021/01/06 05:08:16;;;;;;;4.70;3.17;;;2.40;99.90;;;;;;5008566;28;20487;-53
2021/01/06 05:10:49;;;;;;;5.00;3.10;;;2.40;99.90;;;;;;5014731;28;20522;-54
2021/01/06 05:13:25;;;;;;;5.10;3.67;;;2.40;99.90;;;;;;5006553;28;20898;-52
2021/01/06 05:15:58;;;;;;;5.23;3.60;;;2.40;99.90;;;;;;5006751;28;20507;-52
2021/01/06 05:18:26;;;;;;;4.80;3.13;;;2.40;99.90;;;;;;5010537;28;20504;-53
2021/01/06 05:20:54;;;;;;;5.37;3.63;;;2.40;99.90;;;;;;5010453;28;21041;-54
2021/01/06 05:23:27;;;;;;;3.83;3.10;;;2.40;99.90;;;;;;5010162;28;20475;-52
2021/01/06 05:25:56;;;;;;;5.07;3.80;;;2.40;99.90;;;;;;5010237;28;20530;-55
2021/01/06 05:28:25;;;;;;;4.70;3.70;;;2.30;99.90;;;;;;5011276;28;20476;-52
2021/01/06 05:30:55;;;;;;;5.03;3.33;;;2.40;99.90;;;;;;5010487;28;20915;-55
2021/01/06 05:33:34;;;;;;;4.77;3.97;;;2.40;99.90;;;;;;5009389;28;20504;-52
2021/01/06 05:36:02;;;;;;;3.97;3.40;;;2.40;99.90;;;;;;5010618;28;20526;-52
2021/01/06 05:38:37;;;;;;;4.40;3.43;;;2.40;99.90;;;;;;5010486;28;20512;-55
2021/01/06 05:41:04;;;;;;;3.77;3.30;;;2.40;99.90;;;;;;5010324;28;20476;-55
2021/01/06 05:43:43;;;;;;;4.77;3.33;;;2.40;99.90;;;;;;5009844;28;20505;-53
2021/01/06 05:46:25;;;;;;;5.13;3.20;;;2.30;99.90;;;;;;5010475;28;20564;-53
2021/01/06 05:48:59;;;;;;;5.23;3.87;;;2.40;99.90;;;;;;5010344;28;20539;-56
2021/01/06 05:51:32;;;;;;;4.10;3.60;;;2.30;99.90;;;;;;5009471;28;20676;-52
2021/01/06 05:54:03;;;;;;;5.30;3.73;;;2.30;99.90;;;;;;5009683;28;20570;-54
2021/01/06 05:56:59;;;;;;;4.83;3.63;;;2.30;99.90;;;;;;5016432;28;20514;-52
2021/01/06 05:59:39;;;;;;;4.20;3.20;;;2.30;99.90;;;;;;5008937;28;20504;-54
2021/01/06 06:02:24;;;;;;;4.77;3.60;;;2.30;99.90;;;;;;5015165;28;21083;-55
2021/01/06 06:05:20;;;;;;;6.13;3.87;;;2.30;99.90;;;;;;5021174;28;20476;-54
2021/01/06 06:08:11;;;;;;;4.60;3.67;;;2.30;99.90;;;;;;5026888;28;20545;-54
2021/01/06 06:10:59;;;;;;;4.47;3.40;;;2.30;99.90;;;;;;5007548;28;20877;-54
2021/01/06 06:14:21;;;;;;;5.67;3.40;;;2.30;99.90;;;;;;5000773;28;20567;-54
2021/01/06 06:16:59;;;;;;;5.90;3.93;;;2.30;99.90;;;;;;4977614;28;20584;-55
2021/01/06 06:19:51;;;;;;;5.27;3.47;;;2.30;99.90;;;;;;4999854;28;20504;-52
2021/01/06 06:22:25;;;;;;;4.97;3.87;;;2.30;99.90;;;;;;4988910;28;20489;-55
2021/01/06 06:24:59;;;;;;;6.03;3.47;;;2.30;99.90;;;;;;4989137;28;20544;-54
2021/01/06 06:28:02;;;;;;;4.20;3.43;;;2.30;99.90;;;;;;4998375;28;20470;-56
2021/01/06 06:30:48;;;;;;;6.97;3.30;;;2.30;99.90;;;;;;5007614;28;20620;-53
2021/01/06 06:33:26;;;;;;;4.87;3.57;;;2.30;99.90;;;;;;5008348;28;20479;-55
2021/01/06 06:35:55;;;;;;;5.13;3.60;;;2.30;99.90;;;;;;5014518;28;20484;-53
2021/01/06 06:38:38;;;;;;;4.33;3.80;;;2.30;99.90;;;;;;5028289;28;20901;-55
2021/01/06 06:41:07;;;;;;;5.23;3.20;;;2.30;99.90;;;;;;5011704;28;20554;-54
2021/01/06 06:43:42;;;;;;;4.83;3.60;;;2.30;99.90;;;;;;4997278;28;20518;-54
2021/01/06 06:46:32;;;;;;;6.13;4.00;;;2.30;99.90;;;;;;5005206;28;20519;-52
2021/01/06 06:49:15;;;;;;;5.63;3.90;;;2.30;99.90;;;;;;5004501;28;21091;-54
2021/01/06 06:51:52;;;;;;;7.87;3.77;;;2.20;99.90;;;;;;5006366;28;20586;-52
2021/01/06 06:54:31;;;;;;;5.00;3.27;;;2.20;99.90;;;;;;5006835;28;20485;-55
2021/01/06 06:57:03;;;;;;;6.80;3.67;;;2.20;99.90;;;;;;5019354;28;20472;-56
2021/01/06 06:59:52;;;;;;;6.27;3.90;;;2.20;99.90;;;;;;5020317;28;20838;-56
2021/01/06 07:02:21;;;;;;;5.30;3.37;;;2.20;99.90;;;;;;5012000;28;20471;-56
2021/01/06 07:04:53;;;;;;;8.73;3.73;;;2.20;99.90;;;;;;5018326;28;20476;-54
2021/01/06 07:07:39;;;;;;;4.33;3.70;;;2.20;99.90;;;;;;5009162;28;20878;-56
2021/01/06 07:10:20;;;;;;;4.87;3.57;;;2.20;99.90;;;;;;5004539;28;20573;-54
2021/01/06 07:12:49;;;;;;;7.40;3.60;;;2.20;99.90;;;;;;5003384;28;20971;-56
2021/01/06 07:15:27;;;;;;;5.13;3.90;;;2.20;99.90;;;;;;4998969;28;20488;-54
2021/01/06 07:17:54;;;;;;;5.83;3.53;;;2.20;99.90;;;;;;5007188;28;20538;-53
2021/01/06 07:20:38;;;;;;;5.77;3.90;;;2.20;99.90;;;;;;5008297;28;20484;-56
2021/01/06 07:23:18;;;;;;;5.90;4.07;;;2.20;99.90;;;;;;5017618;28;20597;-56
2021/01/06 07:25:56;;;;;;;4.40;3.57;;;2.20;99.90;;;;;;5006926;28;20863;-53
2021/01/06 07:28:24;;;;;;;6.47;3.80;;;2.20;99.90;;;;;;5004791;28;20500;-56
2021/01/06 07:30:54;;;;;;;6.60;4.07;;;2.20;99.90;;;;;;5004207;28;20806;-54
2021/01/06 07:33:34;;;;;;;5.73;4.20;;;2.20;99.90;;;;;;5004613;28;20581;-56
2021/01/06 07:36:11;;;;;;;7.87;4.63;;;2.10;99.90;;;;;;5004249;28;20858;-54
2021/01/06 07:38:39;;;;;;;5.13;4.27;;;2.10;99.90;;;;;;5006224;28;20562;-53
2021/01/06 07:41:08;;;;;;;6.93;4.33;;;2.10;99.90;;;;;;5007009;28;20486;-56
2021/01/06 07:43:44;;;;;;;5.50;4.13;;;2.10;99.90;;;;;;4993610;28;20919;-53
2021/01/06 07:46:22;;;;;;;6.30;3.93;;;2.10;99.90;;;;;;5007015;28;20567;-54
2021/01/06 07:49:20;;;;;;;6.90;4.27;;;2.10;99.90;;;;;;5006579;28;20555;-53
2021/01/06 07:51:59;;;;;;;8.13;4.40;;;2.10;99.90;;;;;;5010764;28;20469;-55
2021/01/06 07:54:34;;;;;;;5.00;4.20;;;2.00;99.90;;;;;;5011077;28;20467;-53
2021/01/06 07:57:11;;;;;;;6.13;4.73;;;2.00;99.90;;;;;;5016834;28;20531;-52
2021/01/06 07:59:52;;;;;;;6.13;4.63;;;2.00;99.90;;;;;;5019432;28;20551;-55
2021/01/06 08:02:30;;;;;;;7.27;5.00;;;2.00;99.90;;;;;;5026966;28;21157;-54
2021/01/06 08:05:23;;;;;;;8.33;4.87;;;2.00;99.90;;;;;;5008721;28;20472;-55
2021/01/06 08:08:09;;;;;;;6.47;4.70;;;2.00;99.90;;;;;;5006491;28;20480;-53
2021/01/06 08:10:39;;;;;;;6.97;4.93;;;1.90;99.90;;;;;;5007178;28;20929;-53
2021/01/06 08:13:24;;;;;;;7.67;4.60;;;1.90;99.90;;;;;;5006848;28;20500;-52
2021/01/06 08:15:56;;;;;;;6.40;4.63;;;1.90;99.90;;;;;;5007435;28;20492;-54
2021/01/06 08:18:31;;;;;;;6.70;5.20;;;1.80;99.90;;;;;;5007754;28;20558;-52
2021/01/06 08:21:14;;;;;;;6.97;5.03;;;1.80;99.90;;;;;;5007453;28;20904;-56
2021/01/06 08:24:28;;;;;;;5.97;4.60;;;1.80;99.90;;;;;;5002501;28;20475;-53
2021/01/06 08:26:57;;;;;;;8.47;4.57;;;1.80;99.90;;;;;;5004104;28;20507;-52
2021/01/06 08:29:28;;;;;;;9.10;5.17;;;1.80;99.90;;;;;;5007421;28;20539;-56
2021/01/06 08:32:00;;;;;;;5.93;4.67;;;1.80;99.90;;;;;;5007036;28;20480;-53
2021/01/06 08:34:32;;;;;;;6.87;4.87;;;1.80;99.90;;;;;;5009681;28;20504;-52
2021/01/06 08:37:06;;;;;;;6.53;4.90;;;1.80;99.90;;;;;;4998465;28;20513;-56
2021/01/06 08:39:37;;;;;;;6.57;4.97;;;1.80;99.90;;;;;;5007460;28;20556;-54
2021/01/06 08:42:16;;;;;;;7.03;5.07;;;1.80;99.90;;;;;;5007059;28;21088;-56
2021/01/06 08:44:49;;;;;;;7.00;4.63;;;1.80;99.90;;;;;;5002825;28;20916;-55
2021/01/06 08:47:34;;;;;;;7.07;5.10;;;1.80;99.90;;;;;;4997858;28;20862;-52
2021/01/06 08:50:31;;;;;;;7.33;5.00;;;1.80;99.90;;;;;;5006529;28;20564;-54
2021/01/06 08:53:01;;;;;;;7.27;5.13;;;1.80;99.90;;;;;;4991219;28;20587;-53
2021/01/06 08:55:33;;;;;;;6.23;5.50;;;1.80;99.90;;;;;;5016549;28;20537;-54
2021/01/06 08:58:04;;;;;;;8.93;5.67;;;1.80;99.90;;;;;;5016843;28;20995;-56
2021/01/06 09:00:37;;;;;;;7.87;5.40;;;1.80;99.90;;;;;;5009637;28;20567;-52
2021/01/06 09:03:23;;;;;;;8.07;5.13;;;1.80;99.90;;;;;;5008059;28;20491;-55
2021/01/06 09:06:11;;;;;;;6.33;5.00;;;1.80;99.90;;;;;;5009399;28;20607;-52
2021/01/06 09:08:48;;;;;;;7.33;5.43;;;1.80;99.90;;;;;;5005693;28;20565;-54
2021/01/06 09:11:23;;;;;;;8.17;5.80;;;1.80;99.90;;;;;;5003025;28;20558;-52
2021/01/06 09:13:58;;;;;;;8.20;5.93;;;1.80;99.90;;;;;;5010730;28;20581;-56
2021/01/06 09:16:39;;;;;;;6.97;5.30;;;1.80;99.90;;;;;;5010350;28;20975;-54
2021/01/06 09:19:17;;;;;;;10.00;6.10;;;1.80;99.90;;;;;;5013067;28;20489;-54
2021/01/06 09:21:45;;;;;;;7.17;5.30;;;1.80;99.90;;;;;;5026217;28;20904;-55
2021/01/06 09:24:19;;;;;;;7.73;5.93;;;1.80;99.90;;;;;;5027034;28;20479;-56
2021/01/06 09:26:52;;;;;;;8.27;5.70;;;1.80;99.90;;;;;;5016464;28;20558;-56
2021/01/06 09:29:23;;;;;;;6.37;5.50;;;1.80;99.90;;;;;;5007498;28;20852;-53
2021/01/06 09:31:55;;;;;;;9.83;5.97;;;1.70;99.90;;;;;;5007166;28;20490;-55
2021/01/06 09:34:33;;;;;;;7.40;5.67;;;1.80;99.90;;;;;;5008697;28;20487;-53
2021/01/06 09:37:04;;;;;;;6.70;5.47;;;1.70;99.90;;;;;;5009634;28;20559;-55
2021/01/06 09:39:35;;;;;;;8.73;6.20;;;1.80;99.90;;;;;;5007588;28;20476;-52
2021/01/06 09:42:05;;;;;;;7.93;6.03;;;1.70;99.90;;;;;;5001547;28;20564;-54
2021/01/06 09:44:33;;;;;;;8.27;5.90;;;1.70;99.90;;;;;;5011691;28;20582;-53
2021/01/06 09:47:06;;;;;;;10.93;6.73;;;1.70;99.90;;;;;;5008809;28;20542;-53
2021/01/06 09:49:38;;;;;;;9.97;6.67;;;1.70;99.90;;;;;;5007810;28;20849;-54
2021/01/06 09:52:18;;;;;;;11.27;6.37;;;1.70;99.90;;;;;;5017205;28;20570;-54
2021/01/06 09:54:45;;;;;;;8.73;6.40;;;1.70;99.90;;;;;;5013828;28;21039;-53
2021/01/06 09:57:15;;;;;;;8.90;6.47;;;1.70;99.90;;;;;;5009027;28;20995;-52
2021/01/06 09:59:45;;;;;;;11.73;6.60;;;1.70;99.90;;;;;;5008177;28;20482;-53
2021/01/06 10:02:22;;;;;;;10.80;7.07;;;1.70;99.90;;;;;;5006248;28;20480;-52
2021/01/06 10:04:53;;;;;;;7.07;6.33;;;1.70;99.90;;;;;;5005389;28;20909;-56
2021/01/06 10:07:42;;;;;;;9.63;6.97;;;1.70;99.90;;;;;;5009889;28;20587;-55
2021/01/06 10:10:15;;;;;;;8.37;6.43;;;1.70;99.90;;;;;;5006638;28;21011;-53
2021/01/06 10:12:59;;;;;;;8.90;7.20;;;1.80;99.90;;;;;;5009317;28;20484;-55
2021/01/06 10:15:55;;;;;;;6.73;5.67;;;1.80;99.90;;;;;;5005953;28;20469;-56
2021/01/06 10:18:45;;;;;;;10.47;6.77;;;1.80;99.90;;;;;;5007355;28;20476;-52
2021/01/06 10:21:29;;;;;;;12.07;7.03;;;1.90;99.90;;;;;;5008452;28;20484;-56
2021/01/06 10:24:18;;;;;;;10.37;6.53;;;1.90;99.90;;;;;;5009062;28;20588;-55
2021/01/06 10:27:04;;;;;;;10.27;6.73;;;1.90;99.90;;;;;;4991869;28;21012;-56
2021/01/06 10:29:45;;;;;;;8.87;6.90;;;1.90;99.90;;;;;;5007968;28;21208;-55
2021/01/06 10:32:47;;;;;;;8.80;6.27;;;2.00;99.90;;;;;;5011103;28;20469;-55
2021/01/06 10:35:37;;;;;;;8.60;6.83;;;2.00;99.90;;;;;;5013539;28;20626;-54
2021/01/06 10:38:30;;;;;;;11.60;6.30;;;2.00;99.90;;;;;;5009943;28;20542;-56
2021/01/06 10:41:20;;;;;;;8.80;6.63;;;2.00;99.90;;;;;;5008028;28;20509;-53
2021/01/06 10:43:48;;;;;;;7.47;6.30;;;2.00;99.90;;;;;;5006276;28;20999;-55
2021/01/06 10:46:49;;;;;;;7.33;6.10;;;2.00;99.90;;;;;;5009644;28;20499;-54
2021/01/06 10:49:53;;;;;;;7.47;6.33;;;2.10;99.90;;;;;;5010489;28;20567;-53
2021/01/06 10:52:50;;;;;;;8.80;6.40;;;2.10;99.90;;;;;;5009393;28;20839;-53
2021/01/06 10:55:37;;;;;;;7.87;5.80;;;2.10;99.90;;;;;;5006071;28;20567;-55
2021/01/06 10:58:17;;;;;;;7.10;6.07;;;2.20;99.90;;;;;;5007411;28;20508;-53
2021/01/06 11:00:58;;;;;;;7.90;6.10;;;2.20;99.90;;;;;;5007445;28;20556;-55
2021/01/06 11:04:06;;;;;;;8.50;6.20;;;2.20;99.90;;;;;;5008120;28;20558;-53
2021/01/06 11:06:48;;;;;;;7.00;5.90;;;2.20;99.90;;;;;;4987794;28;20485;-53
2021/01/06 11:09:39;;;;;;;8.33;6.40;;;2.20;99.90;;;;;;5007900;28;20476;-54
2021/01/06 11:12:35;;;;;;;7.83;6.40;;;2.20;99.90;;;;;;5006175;28;20868;-55
2021/01/06 11:15:30;;;;;;;6.97;5.80;;;2.20;99.90;;;;;;5005804;28;20831;-55
2021/01/06 11:18:18;;;;;;;6.30;5.63;;;2.20;99.90;;;;;;5006917;28;21237;-55
2021/01/06 11:20:50;;;;;;;7.30;5.87;;;2.20;99.90;;;;;;5006925;28;20909;-53
2021/01/06 11:24:01;;;;;;;7.20;6.00;;;2.10;99.90;;;;;;5006919;28;20570;-55
2021/01/06 11:26:53;;;;;;;7.70;6.23;;;2.10;99.90;;;;;;5007475;28;20480;-54
2021/01/06 11:29:47;;;;;;;8.17;6.20;;;2.10;99.90;;;;;;5008645;28;20507;-54
2021/01/06 11:32:33;;;;;;;7.77;6.50;;;2.10;99.90;;;;;;5007691;28;20473;-53
2021/01/06 11:35:30;;;;;;;9.20;6.83;;;2.20;99.90;;;;;;5007800;28;20574;-56
2021/01/06 11:38:00;;;;;;;9.47;7.00;;;2.20;99.90;;;;;;5007824;28;20487;-56
2021/01/06 11:40:54;;;;;;;9.47;7.27;;;2.20;99.90;;;;;;5008622;28;20496;-53
2021/01/06 11:43:49;;;;;;;10.23;7.40;;;2.10;99.90;;;;;;5007460;28;20476;-56
2021/01/06 11:46:53;;;;;;;10.13;7.47;;;2.10;99.90;;;;;;5002594;28;20497;-53
2021/01/06 11:49:26;;;;;;;9.50;7.23;;;2.20;99.90;;;;;;5011487;28;20481;-53
2021/01/06 11:52:51;;;;;;;12.77;8.47;;;2.10;99.90;;;;;;5015767;28;21057;-55
2021/01/06 11:55:36;;;;;;;11.43;8.33;;;2.10;99.90;;;;;;5006119;28;20958;-55
2021/01/06 11:58:32;;;;;;;9.57;7.33;;;2.10;99.90;;;;;;5006985;28;20535;-54
2021/01/06 12:01:38;;;;;;;9.13;7.50;;;2.10;99.90;;;;;;4984618;28;20622;-55
2021/01/06 12:04:32;;;;;;;10.73;7.70;;;2.00;99.90;;;;;;5007172;28;20527;-52
2021/01/06 12:07:29;;;;;;;10.07;7.13;;;2.00;99.90;;;;;;5004714;28;20493;-53
2021/01/06 12:10:09;;;;;;;10.63;7.30;;;2.00;99.90;;;;;;4985073;28;20587;-55
2021/01/06 12:12:56;;;;;;;9.70;7.80;;;1.90;99.90;;;;;;4996409;28;20567;-54
2021/01/06 12:15:45;;;;;;;9.87;7.67;;;1.90;99.90;;;;;;5004534;28;20523;-55
2021/01/06 12:18:42;;;;;;;9.80;7.37;;;1.80;99.90;;;;;;5004659;28;20492;-53
2021/01/06 12:21:49;;;;;;;8.30;7.07;;;1.80;99.90;;;;;;5004478;28;21075;-55
2021/01/06 12:24:59;;;;;;;8.23;6.80;;;1.80;99.90;;;;;;5003048;28;20576;-53
2021/01/06 12:27:57;;;;;;;8.90;7.17;;;1.70;99.90;;;;;;5000729;28;20987;-51
2021/01/06 12:30:40;;;;;;;8.90;7.17;;;1.70;99.90;;;;;;5003431;28;20542;-57
2021/01/06 12:33:31;;;;;;;8.63;7.13;;;1.70;99.90;;;;;;5001370;28;20877;-52
2021/01/06 12:36:21;;;;;;;8.43;6.87;;;1.70;99.90;;;;;;5002540;28;20488;-52
2021/01/06 12:38:51;;;;;;;10.03;7.70;;;1.70;99.90;;;;;;5001064;28;20570;-55
2021/01/06 12:41:22;;;;;;;8.80;7.13;;;1.70;99.90;;;;;;5006344;28;20901;-52
2021/01/06 12:44:11;;;;;;;10.00;7.60;;;1.70;99.90;;;;;;5002367;28;20488;-54
2021/01/06 12:46:45;;;;;;;8.40;7.40;;;1.70;99.90;;;;;;5004389;28;20570;-54
2021/01/06 12:49:26;;;;;;;9.60;7.90;;;1.70;99.90;;;;;;5004572;28;20949;-53
2021/01/06 12:52:18;;;;;;;7.93;7.13;;;1.70;99.90;;;;;;5002220;28;20870;-54
2021/01/06 12:54:50;;;;;;;8.47;7.33;;;1.70;99.90;;;;;;5003604;28;20495;-52
2021/01/06 12:57:25;;;;;;;8.10;7.27;;;1.70;99.90;;;;;;5000217;28;20898;-53
2021/01/06 12:59:57;;;;;;;9.70;7.43;;;1.60;99.90;;;;;;5004713;28;20864;-53
2021/01/06 13:02:32;;;;;;;9.80;8.00;;;1.60;99.90;;;;;;4984374;28;20532;-52
2021/01/06 13:05:16;;;;;;;7.90;7.10;;;1.60;99.90;;;;;;4985253;28;20493;-55
2021/01/06 13:07:50;;;;;;;9.63;7.77;;;1.60;99.90;;;;;;5001642;28;20527;-54
2021/01/06 13:10:39;;;;;;;8.73;7.77;;;1.60;99.90;;;;;;4996337;28;20480;-55
2021/01/06 13:13:27;;;;;;;8.30;7.50;;;1.60;99.90;;;;;;5013019;28;21053;-52
2021/01/06 13:16:00;;;;;;;8.37;7.47;;;1.60;99.90;;;;;;5005185;28;20889;-52
2021/01/06 13:18:50;;;;;;;9.40;7.33;;;1.60;99.90;;;;;;5002524;28;20567;-53
2021/01/06 13:21:25;;;;;;;8.73;7.83;;;1.60;99.90;;;;;;5000671;28;20567;-51
2021/01/06 13:24:09;;;;;;;8.83;7.57;;;1.60;99.90;;;;;;4997491;28;20510;-51
2021/01/06 13:26:41;;;;;;;8.53;7.60;;;1.60;99.90;;;;;;4998736;28;20485;-51
2021/01/06 13:29:30;;;;;;;9.30;7.37;;;1.60;99.90;;;;;;4997158;28;21066;-52
2021/01/06 13:32:14;;;;;;;9.13;7.30;;;1.60;99.90;;;;;;4993661;28;20586;-52
2021/01/06 13:34:49;;;;;;;8.50;7.60;;;1.60;99.90;;;;;;4993106;28;20480;-51
2021/01/06 13:37:35;;;;;;;8.13;7.33;;;1.60;99.90;;;;;;4998137;28;20480;-54
2021/01/06 13:40:16;;;;;;;9.03;7.93;;;1.60;99.90;;;;;;5010824;28;20671;-52
2021/01/06 13:43:19;;;;;;;8.83;7.80;;;1.60;99.90;;;;;;5001459;28;20959;-56
2021/01/06 13:45:57;;;;;;;8.70;7.80;;;1.60;99.90;;;;;;5004439;28;20556;-52
2021/01/06 13:49:22;;;;;;;8.97;7.90;;;1.60;99.90;;;;;;5005415;28;20480;-52
2021/01/06 13:51:59;;;;;;;8.70;6.90;;;1.60;99.90;;;;;;4994700;28;20553;-52
2021/01/06 13:54:57;;;;;;;8.40;7.27;;;1.60;99.90;;;;;;5001482;28;20891;-51